Asturcon — V7CH7 — position and weather

sailwx.info

Track history (hours):
 
Tides and Currents Weather Stations Pressure Air Temp Water Temp Dewpoint Dewpoint Depression Visibility Wind Speed Wind Dir Waves Ship Positions

Asturcon

Last reported at 2017-Nov-14 13:33 UTC. Time now 2017-Nov-20 09:51 UTC.
Position N 34°28' W 023°57'.

Length 180 m; draft 9.6 m.

Type: Cargo ship. MMSI: 538005262.

Date/timePositionNaut miles runAvg speedWind from/ knotsBaromVisibWave heightAir tempDewpointWater temp
2017-Nov-14 13:33N 34°28' W 023°57'2012.2
2017-Nov-14 11:53N 34°31' W 023°33'  
2017-Nov-12 01:56N 35°48' W 007°57'613.2
2017-Nov-12 01:30N 35°48' W 007°50'813.2
2017-Nov-12 00:52N 35°49' W 007°39'10113.1
2017-Nov-11 17:07N 35°58' W 005°35'112.4
2017-Nov-11 17:00N 35°58' W 005°33'711.1
2017-Nov-11 16:23N 35°60' W 005°25'410.2
2017-Nov-11 15:59N 36°01' W 005°20'510.1
2017-Nov-11 15:30N 36°02' W 005°14'  
2017-Nov-08 14:03N 36°24' E 013°41'112.3
2017-Nov-08 13:59N 36°24' E 013°42'612.2
2017-Nov-08 13:29N 36°21' E 013°49'612.0
2017-Nov-08 13:00N 36°18' E 013°55'611.9
2017-Nov-08 12:29N 36°15' E 014°02'611.9
2017-Nov-08 12:00N 36°13' E 014°08'611.6
2017-Nov-08 11:29N 36°12' E 014°16'611.5
2017-Nov-08 11:00N 36°11' E 014°22'611.6
2017-Nov-08 10:29N 36°11' E 014°30'611.8
2017-Nov-08 10:00N 36°11' E 014°37'611.7
2017-Nov-08 09:30N 36°11' E 014°44'  
2017-Nov-05 02:04N 40°53' E 028°34'112.4
2017-Nov-05 01:59N 40°53' E 028°35'1612.4
2017-Nov-05 00:43N 40°57' E 028°56'  
Track history (hours):
 
Tides and Currents Weather Stations Pressure Air Temp Water Temp Dewpoint Dewpoint Depression Visibility Wind Speed Wind Dir Waves Ship Positions

Asturcon

Last reported at 2017-Nov-14 13:33 UTC. Time now 2017-Nov-20 09:52 UTC.
Position N 34°28' W 023°57'.

Length 180 m; draft 9.6 m.

Type: Cargo ship. MMSI: 538005262.

Date/timePositionNaut miles runAvg speedWind from/ knotsBaromVisibWave heightAir tempDewpointWater temp
2017-Nov-14 13:33N 34°28' W 023°57'2012.2
2017-Nov-14 11:53N 34°31' W 023°33'  
2017-Nov-12 01:56N 35°48' W 007°57'613.2
2017-Nov-12 01:30N 35°48' W 007°50'813.2
2017-Nov-12 00:52N 35°49' W 007°39'10113.1
2017-Nov-11 17:07N 35°58' W 005°35'112.4
2017-Nov-11 17:00N 35°58' W 005°33'711.1
2017-Nov-11 16:23N 35°60' W 005°25'410.2
2017-Nov-11 15:59N 36°01' W 005°20'510.1
2017-Nov-11 15:30N 36°02' W 005°14'  
2017-Nov-08 14:03N 36°24' E 013°41'112.3
2017-Nov-08 13:59N 36°24' E 013°42'612.2
2017-Nov-08 13:29N 36°21' E 013°49'612.0
2017-Nov-08 13:00N 36°18' E 013°55'611.9
2017-Nov-08 12:29N 36°15' E 014°02'611.9
2017-Nov-08 12:00N 36°13' E 014°08'611.6
2017-Nov-08 11:29N 36°12' E 014°16'611.5
2017-Nov-08 11:00N 36°11' E 014°22'611.6
2017-Nov-08 10:29N 36°11' E 014°30'611.8
2017-Nov-08 10:00N 36°11' E 014°37'611.7
2017-Nov-08 09:30N 36°11' E 014°44'  
2017-Nov-05 02:04N 40°53' E 028°34'112.4
2017-Nov-05 01:59N 40°53' E 028°35'1612.4
2017-Nov-05 00:43N 40°57' E 028°56'  

Dump ship's entire track history